createdAt,value
2023-02-12T00:00:00.243Z,-23323.41
2023-02-12T00:02:03.014Z,-23324.03
2023-02-12T00:04:07.341Z,-23324.53
2023-02-12T00:06:13.481Z,-23322.78
2023-02-12T00:08:17.456Z,-23323.25
2023-02-12T00:10:20.497Z,-23323.91
2023-02-12T00:12:23.212Z,-23327.06
2023-02-12T00:14:26.128Z,-23328.81
2023-02-12T00:16:30.131Z,-23327.72
2023-02-12T00:18:32.786Z,-23327.22
2023-02-12T00:20:38.066Z,-23325.81
2023-02-12T00:22:40.754Z,-23329.78
2023-02-12T00:24:43.468Z,-23328.97
2023-02-12T00:26:48.088Z,-23328.03
2023-02-12T00:28:51.260Z,-23331.22
2023-02-12T00:30:54.114Z,-23328.19
2023-02-12T00:32:56.854Z,-23332.81
2023-02-12T00:34:59.498Z,-23332.00
2023-02-12T00:37:03.499Z,-23328.19
2023-02-12T00:39:06.168Z,-23328.34
2023-02-12T00:41:08.823Z,-23331.22
2023-02-12T00:43:11.475Z,-23334.88
2023-02-12T00:45:14.107Z,-23329.31
2023-02-12T00:47:16.904Z,-23327.56
2023-02-12T00:49:20.418Z,-23329.94
2023-02-12T00:51:23.145Z,-23331.06
2023-02-12T00:53:27.389Z,-23333.44
2023-02-12T00:55:31.259Z,-23333.13
2023-02-12T00:57:34.347Z,-23331.22
2023-02-12T00:59:40.026Z,-23328.50
2023-02-12T01:01:42.650Z,-23331.22
2023-02-12T01:03:45.308Z,-23331.53
2023-02-12T01:05:49.071Z,-23328.97
2023-02-12T01:07:52.126Z,-23330.56
2023-02-12T01:09:56.149Z,-23327.72
2023-02-12T01:11:58.803Z,-23327.06
2023-02-12T01:14:01.550Z,-23326.75
2023-02-12T01:16:06.742Z,-23325.81
2023-02-12T01:18:09.546Z,-23327.22
2023-02-12T01:20:17.387Z,-23328.03
2023-02-12T01:22:20.182Z,-23327.06
2023-02-12T01:24:23.036Z,-23327.38
2023-02-12T01:26:28.380Z,-23324.69
2023-02-12T01:28:31.238Z,-23320.38
2023-02-12T01:30:33.984Z,-23321.97
2023-02-12T01:32:36.686Z,-23321.34
2023-02-12T01:34:39.478Z,-23322.63
2023-02-12T01:36:42.111Z,-23321.03
2023-02-12T01:38:44.805Z,-23324.84
2023-02-12T01:40:47.380Z,-23325.81
2023-02-12T01:42:51.345Z,-23326.75
2023-02-12T01:45:33.710Z,-23326.75
2023-02-12T01:47:36.346Z,-23324.53
2023-02-12T01:49:41.472Z,-23322.31
2023-02-12T01:51:45.510Z,-23324.53
2023-02-12T01:53:52.267Z,-23327.38
2023-02-12T01:55:59.088Z,-23323.91
2023-02-12T01:58:03.291Z,-23324.03
2023-02-12T02:00:09.667Z,-23324.03
2023-02-12T02:02:12.783Z,-23323.09
2023-02-12T02:04:18.315Z,-23328.19
2023-02-12T02:06:23.634Z,-23329.63
2023-02-12T02:08:26.772Z,-23332.66
2023-02-12T02:10:30.602Z,-23325.16
2023-02-12T02:12:50.705Z,-23322.78
2023-02-12T02:14:56.527Z,-23327.22
2023-02-12T02:17:11.910Z,-23330.56
2023-02-12T02:19:28.211Z,-23330.41
2023-02-12T02:21:49.479Z,-23326.13
2023-02-12T02:24:17.162Z,-23324.53
2023-02-12T02:26:40.651Z,-23325.31
2023-02-12T02:29:21.449Z,-23324.38
2023-02-12T02:31:31.687Z,-23327.06
2023-02-12T02:33:40.831Z,-23324.84
2023-02-12T02:35:53.582Z,-23323.25
2023-02-12T02:38:07.698Z,-23319.28
2023-02-12T02:40:14.601Z,-23322.31
2023-02-12T02:42:18.295Z,-23329.94
2023-02-12T02:44:26.434Z,-23325.81
2023-02-12T02:46:35.268Z,-23322.47
2023-02-12T02:48:41.406Z,-23317.69
2023-02-12T02:50:49.448Z,-23313.38
2023-02-12T02:52:56.032Z,-23313.69
2023-02-12T02:55:03.495Z,-23316.88
2023-02-12T02:57:14.001Z,-23318.63
2023-02-12T02:59:22.800Z,-23318.47
2023-02-12T03:01:31.089Z,-23314.34
2023-02-12T03:03:41.796Z,-23314.66
2023-02-12T03:05:48.268Z,-23316.25
2023-02-12T03:07:55.345Z,-23317.53
2023-02-12T03:10:02.871Z,-23320.72
2023-02-12T03:12:10.473Z,-23321.66
2023-02-12T03:14:17.443Z,-23319.44
2023-02-12T03:16:24.206Z,-23321.97
2023-02-12T03:18:30.617Z,-23329.94
2023-02-12T03:20:40.688Z,-23326.91
2023-02-12T03:22:47.153Z,-23321.81
2023-02-12T03:24:54.884Z,-23319.59
2023-02-12T03:27:06.499Z,-23317.69
2023-02-12T03:29:09.245Z,-23319.09
2023-02-12T03:31:18.709Z,-23317.19
2023-02-12T03:33:30.329Z,-23316.88
2023-02-12T03:35:40.808Z,-23319.75
2023-02-12T03:37:53.125Z,-23317.53
2023-02-12T03:39:59.923Z,-23317.53
2023-02-12T03:42:07.729Z,-23304.94
2023-02-12T03:44:17.347Z,-23299.53
2023-02-12T03:46:24.070Z,-23299.69
2023-02-12T03:48:34.839Z,-23311.16
2023-02-12T03:50:46.830Z,-23307.00
2023-02-12T03:52:51.478Z,-23300.63
2023-02-12T03:54:54.218Z,-23310.50
2023-02-12T03:57:03.233Z,-23313.69
2023-02-12T03:59:06.666Z,-23314.03
2023-02-12T04:01:10.350Z,-23310.19
2023-02-12T04:03:13.212Z,-23312.91
2023-02-12T04:05:18.881Z,-23315.44
2023-02-12T04:07:23.162Z,-23309.25
2023-02-12T04:09:28.605Z,-23300.63
2023-02-12T04:11:39.029Z,-23302.22
2023-02-12T04:13:48.535Z,-23308.13
2023-02-12T04:16:04.044Z,-23308.75
2023-02-12T04:18:14.150Z,-23304.94
2023-02-12T04:20:27.094Z,-23299.03
2023-02-12T04:22:44.897Z,-23300.31
2023-02-12T04:24:59.439Z,-23307.81
2023-02-12T04:27:12.089Z,-23303.66
2023-02-12T04:29:21.523Z,-23310.03
2023-02-12T04:31:29.418Z,-23307.66
2023-02-12T04:33:37.941Z,-23307.00
2023-02-12T04:35:44.714Z,-23302.38
2023-02-12T04:37:52.085Z,-23304.16
2023-02-12T04:39:55.694Z,-23302.38
2023-02-12T04:42:00.078Z,-23302.22
2023-02-12T04:44:15.394Z,-23303.50
2023-02-12T04:46:18.135Z,-23300.63
2023-02-12T04:48:22.019Z,-23298.72
2023-02-12T04:50:25.140Z,-23296.03
2023-02-12T04:52:27.805Z,-23296.34
2023-02-12T04:54:31.699Z,-23298.88
2023-02-12T04:56:34.341Z,-23299.53
2023-02-12T04:58:37.839Z,-23299.69
2023-02-12T05:00:40.533Z,-23307.00
2023-02-12T05:02:43.283Z,-23307.97
2023-02-12T05:04:45.867Z,-23304.16
2023-02-12T05:06:48.763Z,-23303.19
2023-02-12T05:08:53.572Z,-23307.97
2023-02-12T05:10:57.616Z,-23301.28
2023-02-12T05:13:02.554Z,-23307.97
2023-02-12T05:15:05.626Z,-23299.84
2023-02-12T05:17:08.268Z,-23297.47
2023-02-12T05:19:12.298Z,-23298.72
2023-02-12T05:21:15.084Z,-23300.97
2023-02-12T05:23:17.732Z,-23313.22
2023-02-12T05:25:20.511Z,-23312.25
2023-02-12T05:27:24.494Z,-23307.97
2023-02-12T05:29:27.149Z,-23306.38
2023-02-12T05:31:29.958Z,-23309.25
2023-02-12T05:33:32.925Z,-23297.94
2023-02-12T05:35:36.099Z,-23301.13
2023-02-12T05:37:38.720Z,-23299.22
2023-02-12T05:39:41.380Z,-23292.19
2023-02-12T05:41:43.968Z,-23287.25
2023-02-12T05:43:49.717Z,-23285.81
2023-02-12T05:45:52.602Z,-23286.94
2023-02-12T05:47:55.446Z,-23286.94
2023-02-12T05:49:57.992Z,-23291.56
2023-02-12T05:52:00.573Z,-23296.19
2023-02-12T05:54:05.382Z,-23293.31
2023-02-12T05:56:13.191Z,-23291.09
2023-02-12T05:58:16.222Z,-23291.56
2023-02-12T06:00:21.144Z,-23293.00
2023-02-12T06:02:23.861Z,-23300.63
2023-02-12T06:04:29.026Z,-23303.03
2023-02-12T06:06:32.672Z,-23303.97
2023-02-12T06:08:35.781Z,-23303.19
2023-02-12T06:10:38.571Z,-23311.16
2023-02-12T06:12:41.205Z,-23308.13
2023-02-12T06:14:43.903Z,-23305.75
2023-02-12T06:16:49.197Z,-23304.78
2023-02-12T06:18:52.930Z,-23305.09
2023-02-12T06:20:55.601Z,-23306.53
2023-02-12T06:22:58.195Z,-23310.03
2023-02-12T06:25:00.921Z,-23315.28
2023-02-12T06:27:03.615Z,-23316.25
2023-02-12T06:29:06.499Z,-23312.09
2023-02-12T06:31:19.387Z,-23309.72
2023-02-12T06:33:23.360Z,-23314.50
2023-02-12T06:35:26.100Z,-23317.84
2023-02-12T06:37:28.769Z,-23317.53
2023-02-12T06:39:31.377Z,-23325.47
2023-02-12T06:41:34.161Z,-23312.75
2023-02-12T06:43:36.895Z,-23315.13
2023-02-12T06:45:39.599Z,-23314.19
2023-02-12T06:47:42.234Z,-23305.09
2023-02-12T06:49:46.322Z,-23308.13
2023-02-12T06:51:48.977Z,-23304.16
2023-02-12T06:53:52.596Z,-23300.31
2023-02-12T06:55:55.558Z,-23288.69
2023-02-12T06:57:58.386Z,-23289.50
2023-02-12T07:00:01.039Z,-23285.34
2023-02-12T07:02:03.805Z,-23290.44
2023-02-12T07:04:06.810Z,-23297.78
2023-02-12T07:06:11.810Z,-23293.78
2023-02-12T07:08:14.825Z,-23290.75
2023-02-12T07:10:17.794Z,-23291.41
2023-02-12T07:12:20.487Z,-23294.59
2023-02-12T07:14:23.208Z,-23298.72
2023-02-12T07:16:28.977Z,-23300.31
2023-02-12T07:18:31.641Z,-23306.69
2023-02-12T07:20:34.318Z,-23303.34
2023-02-12T07:22:38.852Z,-23305.09
2023-02-12T07:24:41.562Z,-23302.22
2023-02-12T07:26:44.238Z,-23300.97
2023-02-12T07:28:46.936Z,-23305.59
2023-02-12T07:30:49.532Z,-23307.00
2023-02-12T07:32:52.112Z,-23317.69
2023-02-12T07:34:54.815Z,-23320.38
2023-02-12T07:36:57.452Z,-23310.69
2023-02-12T07:39:01.600Z,-23326.13
2023-02-12T07:41:10.603Z,-23318.00
2023-02-12T07:43:13.466Z,-23307.81
2023-02-12T07:45:16.120Z,-23327.06
2023-02-12T07:47:18.869Z,-23315.28
2023-02-12T07:49:23.112Z,-23319.75
2023-02-12T07:51:27.373Z,-23326.44
2023-02-12T07:53:30.032Z,-23325.16
2023-02-12T07:55:34.053Z,-23311.63
2023-02-12T07:57:37.425Z,-23322.31
2023-02-12T07:59:40.083Z,-23316.25
2023-02-12T08:01:44.076Z,-23315.13
2023-02-12T08:03:47.733Z,-23319.75
2023-02-12T08:05:50.717Z,-23327.38
2023-02-12T08:07:53.339Z,-23325.16
2023-02-12T08:09:56.041Z,-23323.25
2023-02-12T08:12:00.059Z,-23320.06
2023-02-12T08:14:02.741Z,-23316.56
2023-02-12T08:16:07.793Z,-23326.75
2023-02-12T08:18:10.413Z,-23333.44
2023-02-12T08:20:13.776Z,-23337.56
2023-02-12T08:22:16.439Z,-23338.06
2023-02-12T08:24:19.164Z,-23343.31
2023-02-12T08:26:23.840Z,-23328.34
2023-02-12T08:28:27.892Z,-23349.50
2023-02-12T08:30:30.591Z,-23331.69
2023-02-12T08:32:33.783Z,-23339.97
2023-02-12T08:34:37.590Z,-23344.91
2023-02-12T08:36:41.187Z,-23347.44
2023-02-12T08:38:45.100Z,-23353.50
2023-02-12T08:40:47.750Z,-23356.34
2023-02-12T08:42:50.483Z,-23353.00
2023-02-12T08:44:54.571Z,-23350.78
2023-02-12T08:46:57.203Z,-23353.50
2023-02-12T08:49:02.081Z,-23352.22
2023-02-12T08:51:07.311Z,-23349.50
2023-02-12T08:53:09.965Z,-23349.50
2023-02-12T08:55:12.601Z,-23350.00
2023-02-12T08:57:15.258Z,-23362.88
2023-02-12T08:59:18.534Z,-23371.94
2023-02-12T09:01:26.363Z,-23370.66
2023-02-12T09:03:29.112Z,-23374.00
2023-02-12T09:05:31.735Z,-23368.44
2023-02-12T09:07:34.366Z,-23361.44
2023-02-12T09:09:37.029Z,-23367.66
2023-02-12T09:11:39.709Z,-23371.31
2023-02-12T09:13:42.299Z,-23372.56
2023-02-12T09:15:46.417Z,-23367.66
2023-02-12T09:17:50.440Z,-23361.75
2023-02-12T09:19:53.080Z,-23371.63
2023-02-12T09:21:57.232Z,-23370.81
2023-02-12T09:23:59.973Z,-23383.38
2023-02-12T09:26:05.744Z,-23384.03
2023-02-12T09:28:08.505Z,-23382.13
2023-02-12T09:30:12.168Z,-23388.78
2023-02-12T09:32:14.789Z,-23382.44
2023-02-12T09:34:18.954Z,-23393.88
2023-02-12T09:36:21.835Z,-23372.25
2023-02-12T09:38:24.411Z,-23371.94
2023-02-12T09:40:32.458Z,-23374.50
2023-02-12T09:43:04.162Z,-23373.53
2023-02-12T09:45:17.520Z,-23377.19
2023-02-12T09:47:24.533Z,-23371.78
2023-02-12T09:49:46.964Z,-23383.69
2023-02-12T09:51:54.002Z,-23399.75
2023-02-12T09:54:04.089Z,-23395.47
2023-02-12T09:56:13.575Z,-23396.09
2023-02-12T09:58:21.072Z,-23401.50
2023-02-12T10:00:28.729Z,-23414.84
2023-02-12T10:02:31.512Z,-23414.38
2023-02-12T10:04:35.639Z,-23404.69
2023-02-12T10:06:45.909Z,-23396.56
2023-02-12T10:09:02.547Z,-23395.63
2023-02-12T10:11:21.106Z,-23404.84
2023-02-12T10:13:37.406Z,-23397.22
2023-02-12T10:15:49.338Z,-23389.25
2023-02-12T10:18:00.956Z,-23393.72
2023-02-12T10:20:41.718Z,-23396.09
2023-02-12T10:22:57.214Z,-23402.63
2023-02-12T10:25:09.926Z,-23408.34
2023-02-12T10:27:16.407Z,-23394.50
2023-02-12T10:29:22.163Z,-23403.72
2023-02-12T10:31:30.657Z,-23404.69
2023-02-12T10:33:40.293Z,-23399.13
2023-02-12T10:35:48.993Z,-23401.81
2023-02-12T10:37:58.461Z,-23409.59
2023-02-12T10:40:06.265Z,-23413.56
2023-02-12T10:42:15.571Z,-23409.75
2023-02-12T10:44:18.774Z,-23408.16
2023-02-12T10:46:21.767Z,-23417.22
2023-02-12T10:48:28.232Z,-23412.94
2023-02-12T10:50:41.888Z,-23414.69
2023-02-12T10:52:48.841Z,-23413.88
2023-02-12T10:54:51.580Z,-23424.06
2023-02-12T10:56:54.337Z,-23415.47
2023-02-12T10:58:59.422Z,-23415.78
2023-02-12T11:01:04.373Z,-23415.16
2023-02-12T11:03:21.371Z,-23400.88
2023-02-12T11:05:26.233Z,-23416.44
2023-02-12T11:07:29.635Z,-23422.78
2023-02-12T11:09:40.617Z,-23406.91
2023-02-12T11:11:43.278Z,-23415.78
2023-02-12T11:13:49.663Z,-23406.28
2023-02-12T11:15:52.981Z,-23420.56
2023-02-12T11:17:58.516Z,-23417.06
2023-02-12T11:20:24.049Z,-23418.19
2023-02-12T11:22:26.799Z,-23417.22
2023-02-12T11:24:33.735Z,-23414.38
2023-02-12T11:26:36.358Z,-23413.41
2023-02-12T11:28:39.112Z,-23419.94
2023-02-12T11:30:52.073Z,-23415.63
2023-02-12T11:32:55.043Z,-23419.59
2023-02-12T11:35:07.595Z,-23414.22
2023-02-12T11:37:17.054Z,-23420.88
2023-02-12T11:39:24.673Z,-23427.72
2023-02-12T11:41:36.259Z,-23412.63
2023-02-12T11:43:40.133Z,-23410.41
2023-02-12T11:45:46.277Z,-23408.00
2023-02-12T11:47:49.346Z,-23414.53
2023-02-12T11:49:55.061Z,-23427.22
2023-02-12T11:51:59.692Z,-23430.09
2023-02-12T11:54:06.162Z,-23427.72
2023-02-12T11:56:11.799Z,-23422.63
2023-02-12T11:58:18.646Z,-23416.09
2023-02-12T12:00:26.103Z,-23418.97
2023-02-12T12:02:35.863Z,-23423.41
2023-02-12T12:04:41.889Z,-23426.59
2023-02-12T12:06:49.083Z,-23431.69
2023-02-12T12:08:57.284Z,-23428.03
2023-02-12T12:11:08.003Z,-23433.91
2023-02-12T12:13:17.218Z,-23434.53
2023-02-12T12:15:42.943Z,-23421.50
2023-02-12T12:18:08.730Z,-23420.88
2023-02-12T12:20:16.883Z,-23429.44
2023-02-12T12:22:29.046Z,-23430.09
2023-02-12T12:24:41.880Z,-23428.81
2023-02-12T12:27:00.177Z,-23431.53
2023-02-12T12:29:11.590Z,-23426.13
2023-02-12T12:31:20.544Z,-23426.59
2023-02-12T12:33:31.639Z,-23421.03
2023-02-12T12:35:43.725Z,-23437.72
2023-02-12T12:37:54.143Z,-23443.75
2023-02-12T12:40:12.687Z,-23441.19
2023-02-12T12:42:27.921Z,-23439.59
2023-02-12T12:44:47.056Z,-23450.09
2023-02-12T12:47:08.245Z,-23440.56
2023-02-12T12:49:29.652Z,-23435.81
2023-02-12T12:51:49.859Z,-23440.25
2023-02-12T12:54:07.361Z,-23441.34
2023-02-12T12:56:43.544Z,-23439.28
2023-02-12T12:59:01.717Z,-23438.50
2023-02-12T13:01:26.122Z,-23438.66
2023-02-12T13:03:49.574Z,-23439.59
2023-02-12T13:06:15.933Z,-23443.59
2023-02-12T13:08:35.716Z,-23452.63
2023-02-12T13:10:43.066Z,-23440.25
2023-02-12T13:13:02.011Z,-23431.03
2023-02-12T13:15:10.382Z,-23417.06
2023-02-12T13:17:21.062Z,-23441.19
2023-02-12T13:19:34.937Z,-23441.34
2023-02-12T13:21:48.955Z,-23442.16
2023-02-12T13:23:58.144Z,-23443.41
2023-02-12T13:26:08.765Z,-23436.44
2023-02-12T13:28:16.719Z,-23437.06
2023-02-12T13:30:22.942Z,-23437.41
2023-02-12T13:32:29.537Z,-23459.91
2023-02-12T13:34:36.669Z,-23446.91
2023-02-12T13:36:39.837Z,-23451.03
2023-02-12T13:38:47.715Z,-23450.88
2023-02-12T13:40:50.905Z,-23452.63
2023-02-12T13:43:00.800Z,-23445.47
2023-02-12T13:45:18.062Z,-23438.66
2023-02-12T13:47:31.246Z,-23445.31
2023-02-12T13:49:46.592Z,-23425.97
2023-02-12T13:51:53.677Z,-23455.16
2023-02-12T13:54:11.716Z,-23453.09
2023-02-12T13:56:28.631Z,-23446.28
2023-02-12T13:58:47.743Z,-23445.31
2023-02-12T14:01:01.664Z,-23449.94
2023-02-12T14:03:09.873Z,-23459.91
2023-02-12T14:05:26.461Z,-23454.22
2023-02-12T14:07:43.567Z,-23456.44
2023-02-12T14:10:02.925Z,-23460.88
2023-02-12T14:12:08.629Z,-23463.41
2023-02-12T14:14:11.578Z,-23463.25
2023-02-12T14:16:36.564Z,-23462.47
2023-02-12T14:18:39.291Z,-23464.38
2023-02-12T14:20:43.349Z,-23460.41
2023-02-12T14:23:02.985Z,-23457.06
2023-02-12T14:25:31.913Z,-23462.13
2023-02-12T14:27:38.190Z,-23466.25
2023-02-12T14:29:40.881Z,-23453.56
2023-02-12T14:31:43.809Z,-23466.56
2023-02-12T14:33:48.152Z,-23461.50
2023-02-12T14:36:40.116Z,-23469.28
2023-02-12T14:39:02.204Z,-23444.69
2023-02-12T14:41:34.100Z,-23448.50
2023-02-12T14:43:58.720Z,-23445.66
2023-02-12T14:46:16.128Z,-23449.44
2023-02-12T14:48:41.499Z,-23445.00
2023-02-12T14:50:50.425Z,-23447.72
2023-02-12T14:53:01.372Z,-23447.88
2023-02-12T14:55:09.422Z,-23448.34
2023-02-12T14:57:25.123Z,-23446.91
2023-02-12T14:59:29.815Z,-23450.88
2023-02-12T15:01:36.288Z,-23446.59
2023-02-12T15:03:43.893Z,-23450.88
2023-02-12T15:05:51.133Z,-23447.88
2023-02-12T15:07:59.706Z,-23442.16
2023-02-12T15:10:10.701Z,-23441.53
2023-02-12T15:12:19.716Z,-23445.31
2023-02-12T15:14:27.104Z,-23447.22
2023-02-12T15:16:41.151Z,-23440.25
2023-02-12T15:18:51.590Z,-23431.53
2023-02-12T15:21:00.261Z,-23437.53
2023-02-12T15:23:35.958Z,-23436.91
2023-02-12T15:25:40.952Z,-23432.00
2023-02-12T15:27:44.161Z,-23431.34
2023-02-12T15:29:49.372Z,-23431.69
2023-02-12T15:31:54.379Z,-23432.16
2023-02-12T15:33:59.679Z,-23434.22
2023-02-12T15:36:04.547Z,-23428.50
2023-02-12T15:38:08.775Z,-23430.56
2023-02-12T15:40:16.192Z,-23432.94
2023-02-12T15:42:27.113Z,-23433.28
2023-02-12T15:44:32.593Z,-23430.88
2023-02-12T15:46:35.244Z,-23431.69
2023-02-12T15:48:39.594Z,-23431.34
2023-02-12T15:50:53.059Z,-23424.53
2023-02-12T15:52:56.650Z,-23420.72
2023-02-12T15:54:59.417Z,-23419.28
2023-02-12T15:57:11.329Z,-23422.78
2023-02-12T15:59:21.446Z,-23418.97
2023-02-12T16:01:25.920Z,-23419.59
2023-02-12T16:03:31.367Z,-23418.66
2023-02-12T16:05:35.421Z,-23418.66
2023-02-12T16:07:39.505Z,-23415.78
2023-02-12T16:09:43.768Z,-23415.00
2023-02-12T16:11:48.336Z,-23418.81
2023-02-12T16:13:55.431Z,-23409.75
2023-02-12T16:16:07.614Z,-23407.69
2023-02-12T16:18:24.330Z,-23404.69
2023-02-12T16:20:28.851Z,-23405.16
2023-02-12T16:22:34.817Z,-23399.59
2023-02-12T16:24:40.436Z,-23401.50
2023-02-12T16:26:47.684Z,-23399.28
2023-02-12T16:28:53.782Z,-23400.53
2023-02-12T16:31:09.041Z,-23394.03
2023-02-12T16:33:33.534Z,-23391.00
2023-02-12T16:35:36.570Z,-23386.72
2023-02-12T16:37:49.266Z,-23382.59
2023-02-12T16:40:09.671Z,-23382.13
2023-02-12T16:42:19.110Z,-23380.06
2023-02-12T16:44:27.966Z,-23378.94
2023-02-12T16:46:32.267Z,-23376.56
2023-02-12T16:48:40.132Z,-23377.97
2023-02-12T16:50:47.656Z,-23376.72
2023-02-12T16:52:50.492Z,-23371.63
2023-02-12T16:54:53.172Z,-23371.00
2023-02-12T16:56:55.834Z,-23370.34
2023-02-12T16:59:00.131Z,-23367.50
2023-02-12T17:01:05.613Z,-23363.66
2023-02-12T17:03:08.347Z,-23362.41
2023-02-12T17:05:11.991Z,-23360.50
2023-02-12T17:07:20.117Z,-23362.06
2023-02-12T17:09:23.152Z,-23362.06
2023-02-12T17:11:27.099Z,-23356.84
2023-02-12T17:13:29.834Z,-23359.38
2023-02-12T17:15:38.116Z,-23356.03
2023-02-12T17:17:42.044Z,-23361.44
2023-02-12T17:19:44.649Z,-23353.19
2023-02-12T17:21:49.469Z,-23353.19
2023-02-12T17:23:54.193Z,-23354.75
2023-02-12T17:25:57.514Z,-23352.38
2023-02-12T17:28:01.133Z,-23353.66
2023-02-12T17:30:04.659Z,-23349.66
2023-02-12T17:32:09.207Z,-23347.44
2023-02-12T17:34:13.282Z,-23348.41
2023-02-12T17:36:15.925Z,-23350.63
2023-02-12T17:38:18.607Z,-23350.31
2023-02-12T17:40:21.444Z,-23347.75
2023-02-12T17:42:24.191Z,-23346.16
2023-02-12T17:44:27.255Z,-23344.72
2023-02-12T17:46:30.663Z,-23351.41
2023-02-12T17:48:33.357Z,-23349.34
2023-02-12T17:50:37.350Z,-23346.16
2023-02-12T17:52:40.051Z,-23346.81
2023-02-12T17:54:45.502Z,-23346.81
2023-02-12T17:56:48.241Z,-23341.88
2023-02-12T17:58:50.962Z,-23346.66
2023-02-12T18:00:53.689Z,-23346.50
2023-02-12T18:02:56.758Z,-23343.63
2023-02-12T18:04:59.388Z,-23345.69
2023-02-12T18:07:03.493Z,-23343.94
2023-02-12T18:09:06.127Z,-23347.28
2023-02-12T18:11:11.027Z,-23343.00
2023-02-12T18:13:14.297Z,-23346.31
2023-02-12T18:15:16.948Z,-23346.66
2023-02-12T18:17:19.549Z,-23345.53
2023-02-12T18:19:22.253Z,-23350.00
2023-02-12T18:21:24.918Z,-23346.81
2023-02-12T18:23:28.900Z,-23350.47
2023-02-12T18:25:31.509Z,-23346.50
2023-02-12T18:27:34.266Z,-23349.03
2023-02-12T18:29:36.949Z,-23352.06
2023-02-12T18:31:39.784Z,-23349.34
2023-02-12T18:33:42.727Z,-23353.81
2023-02-12T18:35:45.406Z,-23348.41
2023-02-12T18:37:48.109Z,-23345.06
2023-02-12T18:39:52.092Z,-23346.97
2023-02-12T18:41:54.805Z,-23343.00
2023-02-12T18:43:58.166Z,-23343.63
2023-02-12T18:46:00.910Z,-23345.06
2023-02-12T18:48:05.221Z,-23343.16
2023-02-12T18:50:09.229Z,-23336.63
2023-02-12T18:52:11.871Z,-23338.22
2023-02-12T18:54:15.055Z,-23337.09
2023-02-12T18:56:19.034Z,-23340.28
2023-02-12T18:58:21.754Z,-23339.16
2023-02-12T19:00:25.730Z,-23338.84
2023-02-12T19:02:28.405Z,-23334.25
2023-02-12T19:04:31.182Z,-23338.84
2023-02-12T19:06:35.498Z,-23337.56
2023-02-12T19:08:38.291Z,-23338.53
2023-02-12T19:10:42.311Z,-23338.38
2023-02-12T19:12:46.399Z,-23337.91
2023-02-12T19:14:49.399Z,-23337.91
2023-02-12T19:16:52.331Z,-23335.50
2023-02-12T19:18:58.407Z,-23335.66
2023-02-12T19:21:01.286Z,-23331.53
2023-02-12T19:23:03.910Z,-23332.47
2023-02-12T19:25:07.234Z,-23331.84
2023-02-12T19:27:10.097Z,-23332.16
2023-02-12T19:29:14.637Z,-23330.09
2023-02-12T19:31:19.624Z,-23332.97
2023-02-12T19:33:22.352Z,-23333.13
2023-02-12T19:35:24.970Z,-23330.25
2023-02-12T19:37:27.654Z,-23325.63
2023-02-12T19:39:30.356Z,-23325.81
2023-02-12T19:41:40.536Z,-23326.13
2023-02-12T19:43:43.466Z,-23326.75
2023-02-12T19:45:47.460Z,-23324.69
2023-02-12T19:47:50.787Z,-23321.34
2023-02-12T19:49:53.898Z,-23322.63
2023-02-12T19:51:56.671Z,-23314.81
2023-02-12T19:54:01.361Z,-23321.34
2023-02-12T19:56:04.869Z,-23316.41
2023-02-12T19:58:09.422Z,-23315.59
2023-02-12T20:00:13.507Z,-23315.59
2023-02-12T20:02:17.580Z,-23313.06
2023-02-12T20:04:22.354Z,-23312.09
2023-02-12T20:06:27.660Z,-23315.59
2023-02-12T20:08:30.404Z,-23313.06
2023-02-12T20:10:33.256Z,-23309.41
2023-02-12T20:12:40.067Z,-23307.31
2023-02-12T20:14:42.650Z,-23306.38
2023-02-12T20:16:46.821Z,-23307.97
2023-02-12T20:18:52.785Z,-23308.91
2023-02-12T20:20:55.938Z,-23305.41
2023-02-12T20:22:59.141Z,-23303.19
2023-02-12T20:25:01.801Z,-23306.84
2023-02-12T20:27:04.613Z,-23307.31
2023-02-12T20:29:07.604Z,-23309.88
2023-02-12T20:31:11.112Z,-23304.94
2023-02-12T20:33:13.897Z,-23301.59
2023-02-12T20:35:18.227Z,-23300.97
2023-02-12T20:37:20.926Z,-23298.41
2023-02-12T20:39:24.362Z,-23300.47
2023-02-12T20:41:28.429Z,-23301.59
2023-02-12T20:43:32.140Z,-23307.66
2023-02-12T20:45:35.990Z,-23303.34
2023-02-12T20:47:38.746Z,-23301.91
2023-02-12T20:49:41.616Z,-23302.06
2023-02-12T20:51:46.802Z,-23300.97
2023-02-12T20:53:50.454Z,-23301.91
2023-02-12T20:55:53.053Z,-23298.41
2023-02-12T20:57:55.832Z,-23301.91
2023-02-12T20:59:58.460Z,-23300.00
2023-02-12T21:02:01.252Z,-23298.72
2023-02-12T21:04:06.271Z,-23303.81
2023-02-12T21:06:09.213Z,-23304.16
2023-02-12T21:08:13.238Z,-23298.41
2023-02-12T21:10:16.797Z,-23301.75
2023-02-12T21:12:19.625Z,-23301.59
2023-02-12T21:14:24.118Z,-23299.69
2023-02-12T21:16:29.336Z,-23300.31
2023-02-12T21:18:32.069Z,-23301.75
2023-02-12T21:20:34.754Z,-23301.28
2023-02-12T21:22:37.357Z,-23303.97
2023-02-12T21:24:41.373Z,-23301.28
2023-02-12T21:26:44.268Z,-23305.75
2023-02-12T21:28:47.403Z,-23302.88
2023-02-12T21:30:50.091Z,-23303.50
2023-02-12T21:32:53.680Z,-23303.19
2023-02-12T21:34:56.493Z,-23300.31
2023-02-12T21:36:59.125Z,-23298.72
2023-02-12T21:39:02.155Z,-23301.13
2023-02-12T21:41:11.540Z,-23299.69
2023-02-12T21:43:14.245Z,-23300.63
2023-02-12T21:45:17.199Z,-23300.47
2023-02-12T21:47:19.792Z,-23305.25
2023-02-12T21:49:28.847Z,-23304.78
2023-02-12T21:51:33.852Z,-23305.75
2023-02-12T21:53:36.501Z,-23302.56
2023-02-12T21:55:39.188Z,-23306.69
2023-02-12T21:57:43.412Z,-23306.69
2023-02-12T21:59:45.989Z,-23302.56
2023-02-12T22:01:50.138Z,-23303.66
2023-02-12T22:03:53.378Z,-23305.09
2023-02-12T22:06:00.908Z,-23300.31
2023-02-12T22:08:03.608Z,-23301.44
2023-02-12T22:10:08.284Z,-23306.38
2023-02-12T22:12:10.954Z,-23304.31
2023-02-12T22:14:18.137Z,-23305.91
2023-02-12T22:16:23.040Z,-23301.28
2023-02-12T22:18:25.725Z,-23298.09
2023-02-12T22:20:28.356Z,-23296.81
2023-02-12T22:22:31.096Z,-23295.38
2023-02-12T22:24:33.830Z,-23295.22
2023-02-12T22:26:36.842Z,-23296.66
2023-02-12T22:28:41.100Z,-23297.63
2023-02-12T22:30:45.151Z,-23299.53
2023-02-12T22:32:47.979Z,-23300.97
2023-02-12T22:34:50.676Z,-23300.81
2023-02-12T22:36:53.342Z,-23292.84
2023-02-12T22:38:58.281Z,-23289.19
2023-02-12T22:41:01.010Z,-23287.91
2023-02-12T22:43:03.669Z,-23288.69
2023-02-12T22:45:06.892Z,-23291.72
2023-02-12T22:47:10.858Z,-23293.31
2023-02-12T22:49:13.513Z,-23286.78
2023-02-12T22:51:20.421Z,-23285.66
2023-02-12T22:53:23.137Z,-23283.13
2023-02-12T22:55:25.779Z,-23285.97
2023-02-12T22:57:28.609Z,-23284.56
2023-02-12T22:59:31.302Z,-23284.38
2023-02-12T23:01:34.595Z,-23285.66
2023-02-12T23:03:38.931Z,-23284.72
2023-02-12T23:05:41.629Z,-23287.91
2023-02-12T23:07:44.263Z,-23284.72
2023-02-12T23:09:46.993Z,-23286.16
2023-02-12T23:11:49.847Z,-23280.56
2023-02-12T23:13:53.298Z,-23282.16
2023-02-12T23:15:56.379Z,-23280.56
2023-02-12T23:17:59.181Z,-23278.66
2023-02-12T23:20:03.276Z,-23281.38
2023-02-12T23:22:06.291Z,-23283.44
2023-02-12T23:24:12.616Z,-23277.06
2023-02-12T23:26:15.209Z,-23277.22
2023-02-12T23:28:18.360Z,-23283.75
2023-02-12T23:30:21.444Z,-23279.59
2023-02-12T23:32:24.103Z,-23280.25
2023-02-12T23:34:26.712Z,-23282.81
2023-02-12T23:36:30.711Z,-23284.22
2023-02-12T23:38:33.440Z,-23283.13
2023-02-12T23:40:36.059Z,-23285.34
2023-02-12T23:42:38.773Z,-23282.63
2023-02-12T23:44:41.410Z,-23281.53
2023-02-12T23:46:44.070Z,-23280.56
2023-02-12T23:48:46.671Z,-23278.97
2023-02-12T23:50:50.023Z,-23275.47
2023-02-12T23:52:54.027Z,-23275.16
2023-02-12T23:54:56.899Z,-23283.44
2023-02-12T23:56:59.573Z,-23282.31
2023-02-12T23:59:02.218Z,-23281.53
